Time;durP1;ratioP1;P1;durP2;ratioP2;P2;SDS_P1;SDS_P2;PMS_P1;PMS_P2;Temp;Humidity;BMP_temperature;BMP_pressure;BME280_temperature;BME280_humidity;BME280_pressure;Samples;Min_cycle;Max_cycle;Signal;HPM_P1;HPM_P2
2023/05/09 04:00:14;;;;;;;35.92;25.98;;;16.10;99.90;;;;;;6091325;22;20012;-69
2023/05/09 04:02:41;;;;;;;37.20;26.02;;;16.10;99.90;;;;;;5053827;28;20033;-70
2023/05/09 04:05:06;;;;;;;;;;;16.10;99.90;;;;;;5055740;28;20025;-71
2023/05/09 04:07:32;;;;;;;33.85;23.65;;;16.10;99.90;;;;;;5054360;28;19927;-70
2023/05/09 04:09:58;;;;;;;41.60;26.15;;;16.10;99.90;;;;;;5055282;28;20025;-70
2023/05/09 04:12:24;;;;;;;;;;;16.10;99.90;;;;;;5057361;28;20097;-70
2023/05/09 04:14:52;;;;;;;32.58;22.95;;;16.10;99.90;;;;;;5056928;28;20397;-70
2023/05/09 04:17:17;;;;;;;35.60;24.27;;;16.10;99.90;;;;;;5056264;28;20111;-70
2023/05/09 04:19:43;;;;;;;31.60;23.07;;;16.30;99.90;;;;;;5055344;28;20515;-70
2023/05/09 04:22:09;;;;;;;36.97;24.48;;;16.30;99.90;;;;;;5054378;28;20264;-70
2023/05/09 04:24:34;;;;;;;35.60;25.23;;;16.20;99.90;;;;;;5054236;28;20091;-69
2023/05/09 04:27:00;;;;;;;34.38;24.52;;;16.20;99.90;;;;;;5055507;28;20260;-68
2023/05/09 04:29:26;;;;;;;37.05;25.27;;;16.20;99.90;;;;;;5055290;28;20366;-68
2023/05/09 04:31:52;;;;;;;36.00;25.38;;;16.30;99.90;;;;;;5055210;28;20116;-68
2023/05/09 04:34:18;;;;;;;34.17;25.25;;;16.40;99.90;;;;;;5054204;28;20025;-69
2023/05/09 04:36:43;;;;;;;35.50;23.88;;;16.50;99.90;;;;;;5055233;28;20108;-70
2023/05/09 04:39:11;;;;;;;35.55;25.25;;;16.50;99.90;;;;;;5036002;28;20040;-72
2023/05/09 04:41:37;;;;;;;33.83;24.48;;;16.40;99.90;;;;;;5073875;28;20021;-71
2023/05/09 04:44:03;;;;;;;34.65;25.42;;;16.40;99.90;;;;;;5058794;28;20048;-69
2023/05/09 04:46:28;;;;;;;36.53;25.17;;;16.30;99.90;;;;;;5055310;28;20029;-71
2023/05/09 04:48:54;;;;;;;37.65;24.38;;;16.20;99.90;;;;;;5055230;28;20044;-70
2023/05/09 04:51:20;;;;;;;37.15;25.33;;;16.20;99.90;;;;;;5053835;28;20033;-71
2023/05/09 04:53:45;;;;;;;35.30;26.48;;;16.10;99.90;;;;;;5039381;28;20033;-71
2023/05/09 04:56:11;;;;;;;39.55;25.70;;;16.10;99.90;;;;;;5035166;28;20036;-70
2023/05/09 04:58:39;;;;;;;38.80;24.85;;;16.10;99.90;;;;;;5050487;28;20541;-71
2023/05/09 05:01:05;;;;;;;36.03;25.67;;;16.20;99.90;;;;;;5034741;28;20045;-71
2023/05/09 05:03:31;;;;;;;38.42;26.13;;;16.10;99.90;;;;;;5033847;28;20026;-71
2023/05/09 05:05:57;;;;;;;34.03;25.63;;;16.00;99.90;;;;;;5034624;28;20028;-69
2023/05/09 05:08:23;;;;;;;33.42;25.80;;;16.00;99.90;;;;;;5048060;28;20036;-70
2023/05/09 05:10:48;;;;;;;37.20;25.50;;;16.00;99.90;;;;;;5053590;28;20485;-70
2023/05/09 05:13:14;;;;;;;41.47;25.48;;;15.90;99.90;;;;;;5053734;28;20025;-70
2023/05/09 05:15:41;;;;;;;39.45;25.42;;;16.10;99.90;;;;;;5054806;28;20029;-70
2023/05/09 05:18:06;;;;;;;;;;;15.90;99.90;;;;;;5054043;28;20033;-71
2023/05/09 05:20:32;;;;;;;39.33;26.92;;;15.90;99.90;;;;;;5054490;28;19916;-69
2023/05/09 05:22:57;;;;;;;40.15;26.75;;;15.90;99.90;;;;;;5053107;28;20086;-69
2023/05/09 05:25:24;;;;;;;39.17;26.55;;;16.00;99.90;;;;;;5053229;28;20478;-69
2023/05/09 05:27:50;;;;;;;40.13;27.23;;;15.90;99.90;;;;;;5043127;28;20025;-68
2023/05/09 05:30:15;;;;;;;41.50;27.77;;;16.00;99.90;;;;;;5032085;28;20048;-68
2023/05/09 05:32:42;;;;;;;38.80;26.30;;;15.90;99.90;;;;;;5030912;28;20486;-70
2023/05/09 05:35:10;;;;;;;39.20;25.75;;;16.10;99.90;;;;;;5032282;28;20552;-70
2023/05/09 05:37:37;;;;;;;40.05;25.63;;;16.10;99.90;;;;;;5042543;28;20029;-68
2023/05/09 05:40:03;;;;;;;39.50;25.92;;;16.00;99.90;;;;;;5048347;28;20030;-68
2023/05/09 05:42:29;;;;;;;34.72;23.52;;;16.00;99.90;;;;;;5052003;28;20028;-67
2023/05/09 05:44:54;;;;;;;32.67;22.77;;;16.10;99.90;;;;;;5051089;28;20400;-68
2023/05/09 05:47:20;;;;;;;32.17;23.75;;;16.10;99.90;;;;;;5054469;28;20021;-68
2023/05/09 05:49:45;;;;;;;32.20;23.73;;;16.10;99.90;;;;;;5053940;28;20045;-69
2023/05/09 05:52:11;;;;;;;31.20;22.97;;;16.10;99.90;;;;;;5056422;28;20771;-68
2023/05/09 05:54:36;;;;;;;29.20;22.73;;;16.30;99.90;;;;;;5055972;28;20025;-69
2023/05/09 05:57:02;;;;;;;30.73;22.30;;;16.40;99.90;;;;;;5055718;28;20251;-69
2023/05/09 05:59:27;;;;;;;35.03;25.25;;;16.40;99.90;;;;;;5035430;28;20024;-69
2023/05/09 06:01:53;;;;;;;35.53;25.58;;;16.50;99.90;;;;;;5046481;28;20053;-69
2023/05/09 06:04:19;;;;;;;34.03;25.43;;;16.50;99.90;;;;;;5039175;28;20024;-71
2023/05/09 06:06:45;;;;;;;33.17;25.00;;;16.60;99.90;;;;;;5051358;28;20350;-72
2023/05/09 06:09:11;;;;;;;40.00;26.25;;;16.60;99.90;;;;;;5032225;28;20461;-70
2023/05/09 06:11:36;;;;;;;44.37;29.30;;;16.60;99.90;;;;;;5031520;28;20025;-70
2023/05/09 06:14:02;;;;;;;45.67;29.23;;;16.60;99.90;;;;;;5031455;28;20268;-70
2023/05/09 06:16:27;;;;;;;45.17;29.50;;;16.60;99.90;;;;;;5051971;28;20111;-69
2023/05/09 06:18:53;;;;;;;42.65;28.20;;;16.70;99.90;;;;;;5050303;28;20044;-70
2023/05/09 06:21:18;;;;;;;43.42;29.27;;;16.70;99.90;;;;;;5052443;28;20096;-71
2023/05/09 06:23:44;;;;;;;42.17;28.03;;;16.80;99.90;;;;;;5050459;28;20029;-70
2023/05/09 06:26:11;;;;;;;37.53;26.23;;;16.90;99.90;;;;;;5050960;28;20314;-70
2023/05/09 06:28:36;;;;;;;43.65;28.20;;;16.90;99.90;;;;;;5051148;28;20070;-70
2023/05/09 06:31:02;;;;;;;41.83;28.10;;;16.90;99.90;;;;;;5050198;28;20025;-71
2023/05/09 06:33:27;;;;;;;39.78;27.40;;;16.90;99.90;;;;;;5047302;28;20029;-71
2023/05/09 06:35:53;;;;;;;38.95;26.92;;;16.80;99.90;;;;;;5032923;28;20585;-70
2023/05/09 06:38:18;;;;;;;40.13;27.55;;;16.90;99.90;;;;;;5045371;28;20029;-71
2023/05/09 06:40:44;;;;;;;41.47;28.30;;;16.90;99.90;;;;;;5052387;28;20039;-72
2023/05/09 06:43:09;;;;;;;45.20;29.20;;;17.00;99.90;;;;;;5051360;28;20029;-71
2023/05/09 06:45:35;;;;;;;45.63;29.03;;;17.10;99.90;;;;;;5052047;28;20029;-71
2023/05/09 06:48:00;;;;;;;40.20;27.85;;;17.20;99.90;;;;;;5052923;28;20309;-71
2023/05/09 06:50:26;;;;;;;47.28;33.05;;;17.20;99.90;;;;;;5046458;28;20037;-71
2023/05/09 06:52:51;;;;;;;43.10;28.30;;;17.30;99.90;;;;;;5031023;28;20163;-71
2023/05/09 06:55:17;;;;;;;43.60;28.10;;;17.50;99.90;;;;;;5029325;28;20030;-71
2023/05/09 06:57:42;;;;;;;41.80;29.00;;;17.60;99.90;;;;;;5047654;28;20117;-71
2023/05/09 07:00:09;;;;;;;39.90;29.63;;;17.50;99.90;;;;;;5052070;28;20044;-72
2023/05/09 07:02:35;;;;;;;42.13;30.20;;;17.50;99.90;;;;;;5051418;28;20037;-71
2023/05/09 07:05:00;;;;;;;36.38;25.95;;;17.50;99.90;;;;;;5052418;28;20021;-71
2023/05/09 07:07:26;;;;;;;36.70;26.65;;;17.50;99.90;;;;;;5052538;28;20116;-71
2023/05/09 07:09:51;;;;;;;37.45;26.88;;;17.50;99.90;;;;;;5052404;28;20470;-71
2023/05/09 07:12:17;;;;;;;33.83;24.40;;;17.80;99.90;;;;;;5053058;28;20036;-71
2023/05/09 07:14:42;;;;;;;28.67;23.63;;;18.30;99.90;;;;;;5053131;28;20123;-71
2023/05/09 07:17:08;;;;;;;32.08;22.80;;;18.40;99.90;;;;;;5051794;28;20120;-71
2023/05/09 07:19:33;;;;;;;28.35;22.33;;;18.50;99.90;;;;;;5051442;28;20083;-73
2023/05/09 07:21:59;;;;;;;26.17;19.92;;;18.60;99.90;;;;;;5051289;28;20025;-72
2023/05/09 07:24:24;;;;;;;26.25;20.15;;;18.70;99.90;;;;;;5052348;28;20055;-72
2023/05/09 07:26:50;;;;;;;26.45;20.38;;;18.80;99.90;;;;;;5051302;28;20025;-72
2023/05/09 07:29:17;;;;;;;26.17;18.60;;;19.00;99.90;;;;;;5051239;28;20063;-72
2023/05/09 07:31:42;;;;;;;22.02;19.10;;;19.20;99.90;;;;;;5051200;28;20449;-71
2023/05/09 07:34:08;;;;;;;23.63;17.73;;;19.20;99.90;;;;;;5050878;28;20032;-72
2023/05/09 07:36:33;;;;;;;23.25;18.95;;;19.30;99.90;;;;;;5051596;28;20115;-71
2023/05/09 07:38:59;;;;;;;20.75;17.30;;;19.30;99.90;;;;;;5033085;28;21980;-72
2023/05/09 07:41:25;;;;;;;20.00;16.83;;;19.30;99.90;;;;;;5036146;28;20029;-71
2023/05/09 07:43:51;;;;;;;20.73;17.10;;;19.10;99.90;;;;;;5033653;28;20017;-71
2023/05/09 07:46:16;;;;;;;15.68;13.65;;;19.00;99.90;;;;;;5034025;28;20112;-73
2023/05/09 07:48:42;;;;;;;21.52;15.05;;;19.00;99.90;;;;;;5033244;28;20081;-72
2023/05/09 07:51:07;;;;;;;19.40;16.40;;;18.90;99.90;;;;;;5035797;28;20032;-72
2023/05/09 07:53:33;;;;;;;20.98;17.00;;;18.70;99.90;;;;;;5034511;28;20034;-73
2023/05/09 07:55:59;;;;;;;17.65;15.52;;;18.60;99.90;;;;;;5035691;28;20139;-72
2023/05/09 07:58:25;;;;;;;22.27;17.63;;;18.50;99.90;;;;;;5035946;28;20032;-71
2023/05/09 08:00:50;;;;;;;18.85;15.55;;;18.50;99.90;;;;;;5035643;28;20383;-72
2023/05/09 08:03:16;;;;;;;17.15;15.35;;;18.50;99.90;;;;;;5035056;28;20524;-72
2023/05/09 08:05:41;;;;;;;16.77;14.77;;;18.50;99.90;;;;;;5034602;28;20116;-72
2023/05/09 08:08:07;;;;;;;18.98;14.90;;;18.60;99.90;;;;;;5035645;28;20067;-73
2023/05/09 08:10:32;;;;;;;19.45;15.88;;;18.70;99.90;;;;;;5035460;28;20060;-71
2023/05/09 08:12:58;;;;;;;19.20;15.95;;;19.00;99.90;;;;;;5034330;28;20025;-72
2023/05/09 08:15:23;;;;;;;17.20;14.73;;;19.40;99.90;;;;;;5035599;28;20029;-72
2023/05/09 08:17:49;;;;;;;15.77;14.00;;;19.70;99.90;;;;;;5034734;28;20127;-73
2023/05/09 08:20:15;;;;;;;16.55;14.38;;;20.00;99.90;;;;;;5035898;28;20095;-72
2023/05/09 08:22:40;;;;;;;16.90;14.65;;;20.40;99.90;;;;;;5034836;28;20112;-72
2023/05/09 08:25:07;;;;;;;17.33;14.68;;;20.80;99.90;;;;;;5034092;28;20133;-73
2023/05/09 08:27:33;;;;;;;16.30;14.18;;;21.30;99.90;;;;;;5035818;28;20029;-73
2023/05/09 08:29:58;;;;;;;15.43;13.40;;;21.90;99.90;;;;;;5034596;28;20489;-73
2023/05/09 08:32:24;;;;;;;14.13;12.63;;;22.40;99.90;;;;;;5034346;28;20022;-72
2023/05/09 08:34:49;;;;;;;14.60;12.30;;;22.50;99.90;;;;;;5035008;28;20017;-72
2023/05/09 08:37:15;;;;;;;;;;;22.40;99.90;;;;;;5039994;28;20053;-73
2023/05/09 08:39:41;;;;;;;14.15;12.50;;;22.10;99.90;;;;;;5055886;28;19912;-72
2023/05/09 08:42:07;;;;;;;;;;;21.60;99.90;;;;;;5056299;28;20074;-72
2023/05/09 08:44:32;;;;;;;13.77;12.38;;;21.40;99.90;;;;;;5055497;28;19955;-72
2023/05/09 08:47:03;;;;;;;14.90;12.90;;;21.20;99.90;;;;;;5053955;28;20389;-72
2023/05/09 08:49:28;;;;;;;13.95;12.32;;;21.00;99.90;;;;;;5054021;28;20026;-72
2023/05/09 08:51:55;;;;;;;13.93;12.52;;;20.90;99.90;;;;;;5055126;28;20043;-72
2023/05/09 08:54:22;;;;;;;19.48;13.05;;;20.50;99.90;;;;;;5053953;28;20545;-72
2023/05/09 08:56:49;;;;;;;15.68;14.07;;;20.50;99.90;;;;;;5054023;28;20029;-72
2023/05/09 08:59:16;;;;;;;16.52;14.02;;;20.50;99.90;;;;;;5054729;28;20028;-72
2023/05/09 09:01:42;;;;;;;17.75;12.88;;;20.40;99.90;;;;;;5052667;28;20051;-72
2023/05/09 09:04:10;;;;;;;13.05;11.57;;;20.50;99.90;;;;;;5035031;28;20032;-72
2023/05/09 09:06:37;;;;;;;15.35;11.65;;;20.60;99.90;;;;;;5033909;28;20025;-72
2023/05/09 09:09:05;;;;;;;13.43;11.95;;;21.00;99.90;;;;;;5032675;28;20040;-73
2023/05/09 09:11:32;;;;;;;13.82;11.57;;;21.20;99.90;;;;;;5033591;28;20413;-72
2023/05/09 09:14:10;;;;;;;18.73;11.55;;;21.50;99.90;;;;;;5034484;28;20545;-73
2023/05/09 09:16:37;;;;;;;11.95;10.65;;;21.90;99.90;;;;;;5034876;28;20025;-73
2023/05/09 09:19:07;;;;;;;12.65;11.32;;;22.10;99.90;;;;;;5034954;28;20087;-74
2023/05/09 09:21:32;;;;;;;14.18;10.65;;;21.80;99.90;;;;;;5033919;28;20037;-73
2023/05/09 09:23:58;;;;;;;13.68;12.20;;;21.90;99.90;;;;;;5034326;28;20021;-73
2023/05/09 09:26:28;;;;;;;17.25;12.23;;;21.70;99.90;;;;;;5035254;28;20030;-73
2023/05/09 09:28:55;;;;;;;14.80;11.52;;;21.70;99.90;;;;;;5035480;28;20456;-73
2023/05/09 09:31:27;;;;;;;14.95;13.35;;;21.90;99.90;;;;;;5035165;28;20022;-73
2023/05/09 09:33:59;;;;;;;14.35;12.85;;;22.10;99.90;;;;;;5034243;28;20048;-73
2023/05/09 09:36:31;;;;;;;14.10;11.82;;;22.30;99.90;;;;;;5033635;28;20025;-72
2023/05/09 09:39:03;;;;;;;15.02;10.65;;;22.40;99.90;;;;;;5034630;28;20026;-72
2023/05/09 09:41:33;;;;;;;12.20;10.52;;;22.30;99.90;;;;;;5036454;28;20018;-73
2023/05/09 09:44:04;;;;;;;10.65;9.55;;;22.50;99.90;;;;;;5036918;28;20032;-72
2023/05/09 09:46:43;;;;;;;11.18;9.75;;;22.30;99.90;;;;;;5041117;28;20083;-73
2023/05/09 09:49:13;;;;;;;11.38;10.27;;;22.30;99.90;;;;;;5040389;28;20025;-73
2023/05/09 09:51:40;;;;;;;11.50;9.20;;;22.60;99.90;;;;;;5042548;28;20018;-73
2023/05/09 09:54:07;;;;;;;10.50;9.40;;;22.60;99.90;;;;;;5043747;28;20021;-73
2023/05/09 09:56:52;;;;;;;9.40;8.45;;;22.50;99.90;;;;;;5042553;28;20041;-72
2023/05/09 09:59:19;;;;;;;12.60;8.93;;;22.10;99.90;;;;;;5039284;28;20026;-72
2023/05/09 10:02:06;;;;;;;13.80;9.43;;;21.90;99.90;;;;;;5034014;28;20034;-72
2023/05/09 10:04:34;;;;;;;9.35;8.38;;;21.60;99.90;;;;;;5034280;28;20067;-72
2023/05/09 10:07:05;;;;;;;8.77;7.85;;;21.20;99.90;;;;;;5034368;28;20021;-73
2023/05/09 10:09:31;;;;;;;9.73;7.60;;;21.00;99.90;;;;;;5033002;28;20036;-73
2023/05/09 10:12:06;;;;;;;9.80;7.90;;;21.00;99.90;;;;;;5034247;28;20029;-73
2023/05/09 10:14:33;;;;;;;9.95;8.32;;;21.10;99.90;;;;;;5032994;28;20371;-73
2023/05/09 10:17:01;;;;;;;10.60;8.93;;;20.90;99.90;;;;;;5035348;28;20442;-73
2023/05/09 10:19:28;;;;;;;11.90;9.18;;;20.80;99.90;;;;;;5033264;28;20021;-73
2023/05/09 10:22:13;;;;;;;10.43;9.02;;;20.70;99.90;;;;;;5033962;28;20033;-73
2023/05/09 10:24:50;;;;;;;12.90;9.50;;;20.60;99.90;;;;;;5034219;28;20413;-73
2023/05/09 10:27:20;;;;;;;10.60;9.27;;;20.50;99.90;;;;;;5035180;28;20096;-72
2023/05/09 10:29:51;;;;;;;14.15;9.80;;;20.40;99.90;;;;;;5035009;28;20027;-73
2023/05/09 10:32:25;;;;;;;11.43;9.68;;;20.30;99.90;;;;;;5041882;28;20339;-71
2023/05/09 10:34:56;;;;;;;12.32;10.98;;;20.00;99.90;;;;;;5050948;28;20025;-72
2023/05/09 10:37:22;;;;;;;12.52;10.88;;;19.70;99.90;;;;;;5056326;28;20052;-69
2023/05/09 10:39:51;;;;;;;14.67;11.47;;;19.50;99.90;;;;;;5065547;28;20037;-70
2023/05/09 10:42:18;;;;;;;12.88;10.27;;;19.30;99.90;;;;;;5063332;28;20332;-69
2023/05/09 10:44:45;;;;;;;9.43;8.50;;;19.10;99.90;;;;;;5061359;28;20033;-70
2023/05/09 10:47:12;;;;;;;11.27;8.32;;;19.00;99.90;;;;;;5055365;28;20036;-70
2023/05/09 10:49:38;;;;;;;10.23;8.68;;;19.00;99.90;;;;;;5053745;28;20413;-70
2023/05/09 10:52:04;;;;;;;11.30;8.35;;;19.00;99.90;;;;;;5054026;28;20025;-71
2023/05/09 10:54:32;;;;;;;8.35;7.47;;;19.00;99.90;;;;;;5054029;28;20032;-71
2023/05/09 10:56:58;;;;;;;10.05;8.05;;;19.10;99.90;;;;;;5053952;28;20414;-71
2023/05/09 10:59:36;;;;;;;;;;;19.30;99.90;;;;;;5054298;28;20108;-72
2023/05/09 11:02:03;;;;;;;9.75;7.53;;;19.30;99.90;;;;;;5053921;28;20003;-72
2023/05/09 11:04:31;;;;;;;9.00;7.07;;;19.50;99.90;;;;;;5052680;28;20036;-71
2023/05/09 11:06:58;;;;;;;8.60;7.60;;;19.50;99.90;;;;;;5055388;28;20022;-72
2023/05/09 11:09:40;;;;;;;8.85;7.55;;;19.50;99.90;;;;;;5054842;28;20025;-71
2023/05/09 11:12:13;;;;;;;9.40;8.05;;;19.50;99.90;;;;;;5054121;28;20017;-71
2023/05/09 11:14:43;;;;;;;8.98;8.15;;;19.40;99.90;;;;;;5055603;28;20031;-72
2023/05/09 11:17:21;;;;;;;9.45;8.13;;;19.50;99.90;;;;;;5058972;28;20076;-72
2023/05/09 11:19:46;;;;;;;10.55;8.38;;;19.40;99.90;;;;;;5060592;28;20025;-73
2023/05/09 11:22:33;;;;;;;12.50;9.40;;;19.30;99.90;;;;;;5063420;28;20421;-72
2023/05/09 11:25:06;;;;;;;11.82;9.13;;;19.20;99.90;;;;;;5046416;28;20036;-72
2023/05/09 11:27:42;;;;;;;12.02;9.75;;;19.30;99.90;;;;;;5061684;28;20071;-72
2023/05/09 11:30:09;;;;;;;11.90;9.80;;;19.20;99.90;;;;;;5057122;28;20033;-72
2023/05/09 11:32:54;;;;;;;12.35;10.45;;;19.20;99.90;;;;;;5056890;28;20393;-72
2023/05/09 11:35:21;;;;;;;13.38;9.85;;;19.10;99.90;;;;;;5057705;28;20075;-73
2023/05/09 11:37:47;;;;;;;12.43;9.52;;;19.00;99.90;;;;;;5057276;28;20021;-71
2023/05/09 11:40:14;;;;;;;15.38;10.48;;;19.10;99.90;;;;;;5052168;28;20032;-71
2023/05/09 11:42:45;;;;;;;11.50;9.73;;;19.10;99.90;;;;;;5055235;28;20442;-70
2023/05/09 11:45:12;;;;;;;11.80;7.97;;;19.10;99.90;;;;;;5053364;28;20029;-70
2023/05/09 11:47:38;;;;;;;10.30;8.38;;;19.30;99.90;;;;;;5057194;28;20025;-73
2023/05/09 11:50:08;;;;;;;;;;;19.50;99.90;;;;;;5055415;28;20021;-75
2023/05/09 11:52:34;;;;;;;9.32;8.32;;;19.50;99.90;;;;;;5055279;28;19919;-73
2023/05/09 11:55:00;;;;;;;6.60;5.90;;;19.70;99.90;;;;;;5055700;28;20029;-71
2023/05/09 11:57:27;;;;;;;8.13;6.82;;;19.70;99.90;;;;;;5055312;28;20025;-72
2023/05/09 11:59:52;;;;;;;9.30;8.05;;;19.80;99.90;;;;;;5061507;28;20032;-71
2023/05/09 12:02:18;;;;;;;13.95;7.35;;;19.80;99.90;;;;;;5075564;28;20025;-71
2023/05/09 12:04:44;;;;;;;13.15;7.32;;;19.80;99.90;;;;;;5076426;28;20443;-72
2023/05/09 12:07:11;;;;;;;8.45;7.20;;;19.90;99.90;;;;;;5069777;28;20022;-71
2023/05/09 12:09:37;;;;;;;8.70;6.28;;;19.80;99.90;;;;;;5035020;28;20056;-71
2023/05/09 12:12:13;;;;;;;6.15;5.55;;;19.80;99.90;;;;;;5035374;28;20025;-71
2023/05/09 12:14:40;;;;;;;8.63;5.50;;;19.90;99.90;;;;;;5035060;28;20030;-72
2023/05/09 12:17:07;;;;;;;6.25;5.60;;;19.80;99.90;;;;;;5035467;28;20026;-72
2023/05/09 12:19:32;;;;;;;;;;;19.90;99.90;;;;;;5036062;28;20057;-73
2023/05/09 12:22:04;;;;;;;6.93;4.85;;;19.90;99.90;;;;;;5036558;28;19916;-72
2023/05/09 12:24:30;;;;;;;4.95;4.40;;;20.30;99.90;;;;;;5036559;28;20025;-72
2023/05/09 12:26:57;;;;;;;5.35;4.85;;;20.50;99.90;;;;;;5035605;28;20025;-71
2023/05/09 12:29:23;;;;;;;5.72;5.13;;;20.80;99.90;;;;;;5034350;28;20056;-71
2023/05/09 12:31:50;;;;;;;5.57;5.00;;;20.80;99.90;;;;;;5034815;28;20026;-71
2023/05/09 12:34:16;;;;;;;5.95;5.38;;;20.50;99.90;;;;;;5035409;28;20038;-69
2023/05/09 12:36:52;;;;;;;10.27;4.55;;;20.40;99.90;;;;;;5035351;28;20478;-70
2023/05/09 12:39:20;;;;;;;5.05;4.55;;;20.40;99.90;;;;;;5035041;28;20056;-69
2023/05/09 12:41:50;;;;;;;4.85;3.83;;;20.40;99.90;;;;;;5035126;28;20025;-68
2023/05/09 12:44:26;;;;;;;5.13;3.90;;;20.30;99.90;;;;;;5035616;28;20068;-71
2023/05/09 12:47:02;;;;;;;4.57;3.75;;;20.20;99.90;;;;;;5035462;28;20048;-70
2023/05/09 12:49:29;;;;;;;5.57;3.50;;;20.30;99.90;;;;;;5035239;28;20025;-74
2023/05/09 12:51:59;;;;;;;7.07;3.65;;;20.30;99.90;;;;;;5034703;28;20025;-70
2023/05/09 12:54:28;;;;;;;4.28;3.85;;;20.30;99.90;;;;;;5046824;28;20087;-69
2023/05/09 12:56:55;;;;;;;5.10;3.85;;;20.30;99.90;;;;;;5054045;28;20033;-70
2023/05/09 12:59:27;;;;;;;5.93;4.55;;;20.20;99.90;;;;;;5055214;28;20028;-73
2023/05/09 13:01:59;;;;;;;5.70;4.88;;;20.20;99.90;;;;;;5053378;28;20071;-73
2023/05/09 13:04:26;;;;;;;5.03;4.53;;;20.30;99.90;;;;;;5054896;28;20044;-75
2023/05/09 13:06:56;;;;;;;6.00;4.55;;;20.40;99.90;;;;;;5052907;28;20028;-68
2023/05/09 13:09:23;;;;;;;5.82;4.88;;;20.60;99.90;;;;;;5034322;28;20032;-68
2023/05/09 13:11:49;;;;;;;4.80;4.00;;;20.80;99.90;;;;;;5033497;28;20072;-68
2023/05/09 13:14:15;;;;;;;5.47;2.75;;;20.90;99.90;;;;;;5038647;28;20497;-69
2023/05/09 13:16:41;;;;;;;4.85;2.75;;;21.00;99.90;;;;;;5053752;28;20033;-69
2023/05/09 13:19:07;;;;;;;4.07;2.35;;;20.90;99.90;;;;;;5054279;28;20114;-69
2023/05/09 13:21:33;;;;;;;2.78;2.20;;;21.10;99.90;;;;;;5054141;28;20069;-70
2023/05/09 13:23:59;;;;;;;2.60;2.22;;;20.90;99.90;;;;;;5052986;28;20075;-68
2023/05/09 13:26:26;;;;;;;3.10;2.80;;;20.70;99.90;;;;;;5052881;28;20025;-69
2023/05/09 13:28:52;;;;;;;3.38;2.20;;;20.90;99.90;;;;;;5054284;28;20107;-68
2023/05/09 13:31:18;;;;;;;3.72;2.45;;;21.00;99.90;;;;;;5054406;28;20033;-69
2023/05/09 13:33:43;;;;;;;;;;;21.20;99.90;;;;;;5055224;28;20098;-74
2023/05/09 13:36:09;;;;;;;3.28;2.20;;;21.30;99.90;;;;;;5055329;28;20312;-75
2023/05/09 13:38:39;;;;;;;2.40;2.20;;;21.30;99.90;;;;;;5039037;28;20018;-74
2023/05/09 13:41:06;;;;;;;2.30;2.10;;;21.30;99.90;;;;;;5032960;28;20474;-73
2023/05/09 13:43:31;;;;;;;3.88;2.38;;;21.30;99.90;;;;;;5034214;28;20024;-74
2023/05/09 13:45:57;;;;;;;2.80;2.00;;;21.10;99.90;;;;;;5033349;28;20120;-73
2023/05/09 13:48:22;;;;;;;6.22;1.95;;;21.10;99.90;;;;;;5034412;28;20029;-74
2023/05/09 13:50:49;;;;;;;2.42;2.03;;;21.10;99.90;;;;;;5034316;28;20033;-72
2023/05/09 13:53:15;;;;;;;2.20;1.95;;;21.10;99.90;;;;;;5033013;28;20036;-74
2023/05/09 13:55:40;;;;;;;1.92;1.70;;;21.10;99.90;;;;;;5032626;28;20394;-73
2023/05/09 13:58:06;;;;;;;2.45;2.05;;;21.10;99.90;;;;;;5032968;28;20107;-73
2023/05/09 14:00:32;;;;;;;3.45;1.90;;;21.20;99.90;;;;;;5033857;28;20049;-73
2023/05/09 14:02:57;;;;;;;3.45;2.20;;;21.20;99.90;;;;;;5043511;28;20033;-74
2023/05/09 14:05:23;;;;;;;3.75;2.30;;;21.30;99.90;;;;;;5049330;28;20112;-74
2023/05/09 14:07:49;;;;;;;3.53;2.30;;;21.30;99.90;;;;;;5047269;28;20093;-73
2023/05/09 14:10:14;;;;;;;4.32;2.60;;;21.40;99.90;;;;;;5033144;28;20493;-72
2023/05/09 14:12:43;;;;;;;3.17;2.28;;;21.50;99.90;;;;;;5032936;28;20021;-73
2023/05/09 14:15:08;;;;;;;3.58;2.60;;;21.50;99.90;;;;;;5032726;28;20044;-74
2023/05/09 14:17:34;;;;;;;5.60;2.08;;;21.50;99.90;;;;;;5034366;28;20475;-73
2023/05/09 14:20:00;;;;;;;3.05;2.05;;;21.50;99.90;;;;;;5035661;28;20121;-70
2023/05/09 14:22:25;;;;;;;2.63;2.20;;;21.50;99.90;;;;;;5034773;28;20364;-69
2023/05/09 14:24:51;;;;;;;3.15;1.90;;;21.50;99.90;;;;;;5033954;28;20390;-69
2023/05/09 14:27:17;;;;;;;3.58;1.90;;;21.40;99.90;;;;;;5034180;28;20045;-70
2023/05/09 14:29:43;;;;;;;3.63;2.40;;;21.40;99.90;;;;;;5033830;28;20052;-70
2023/05/09 14:32:11;;;;;;;3.28;2.53;;;21.50;99.90;;;;;;5033742;28;20053;-71
2023/05/09 14:34:38;;;;;;;3.03;2.45;;;21.60;99.90;;;;;;5032946;28;20382;-71
2023/05/09 14:37:03;;;;;;;2.95;2.00;;;21.60;99.90;;;;;;5032082;28;20044;-71
2023/05/09 14:39:29;;;;;;;3.33;1.95;;;21.70;99.90;;;;;;5033538;28;20477;-71
2023/05/09 14:41:55;;;;;;;;;;;21.70;99.90;;;;;;5034092;28;20040;-72
2023/05/09 14:44:23;;;;;;;2.50;1.90;;;21.70;99.90;;;;;;5035841;28;19912;-72
2023/05/09 14:46:48;;;;;;;2.50;1.88;;;21.80;99.90;;;;;;5033600;28;20021;-72
2023/05/09 14:49:14;;;;;;;4.97;2.17;;;21.80;99.90;;;;;;5036038;28;20402;-72
2023/05/09 14:51:39;;;;;;;2.65;2.05;;;21.70;99.90;;;;;;5038271;28;20037;-72
2023/05/09 14:54:05;;;;;;;2.67;2.28;;;21.80;99.90;;;;;;5038637;28;20033;-70
2023/05/09 14:56:31;;;;;;;5.82;2.22;;;21.70;99.90;;;;;;5036368;28;20037;-71
2023/05/09 14:58:56;;;;;;;2.10;1.88;;;21.70;99.90;;;;;;5038198;28;20107;-72
2023/05/09 15:01:22;;;;;;;2.80;1.88;;;21.70;99.90;;;;;;5036986;28;20143;-74
2023/05/09 15:03:47;;;;;;;5.22;4.30;;;21.50;99.90;;;;;;5038307;28;20014;-74
2023/05/09 15:06:13;;;;;;;3.78;2.80;;;21.40;99.90;;;;;;5036662;28;20163;-73
2023/05/09 15:08:38;;;;;;;5.25;4.32;;;21.50;99.90;;;;;;5052395;28;20045;-71
2023/05/09 15:11:04;;;;;;;3.20;2.15;;;21.60;99.90;;;;;;5060568;28;20541;-71
2023/05/09 15:13:30;;;;;;;3.97;2.28;;;21.60;99.90;;;;;;5063293;28;20112;-71
2023/05/09 15:15:56;;;;;;;2.35;2.00;;;21.50;99.90;;;;;;5062560;28;20028;-71
2023/05/09 15:18:22;;;;;;;;;;;21.40;99.90;;;;;;5060042;28;20118;-72
2023/05/09 15:20:50;;;;;;;3.40;2.08;;;21.40;99.90;;;;;;5061837;28;19908;-71
2023/05/09 15:23:16;;;;;;;2.47;1.90;;;21.40;99.90;;;;;;5061642;28;20025;-71
2023/05/09 15:25:41;;;;;;;2.20;2.00;;;21.50;99.90;;;;;;5062928;28;20121;-72
2023/05/09 15:28:07;;;;;;;2.58;2.28;;;21.50;99.90;;;;;;5056024;28;20029;-72
2023/05/09 15:30:33;;;;;;;2.50;2.22;;;21.50;99.90;;;;;;5057543;28;20029;-71
2023/05/09 15:32:58;;;;;;;3.20;2.22;;;21.50;99.90;;;;;;5055462;28;20032;-71
2023/05/09 15:35:24;;;;;;;4.88;2.80;;;21.60;99.90;;;;;;5056612;28;20048;-71
2023/05/09 15:37:50;;;;;;;4.53;2.47;;;21.70;99.90;;;;;;5047784;28;20540;-70
2023/05/09 15:40:15;;;;;;;3.35;2.95;;;21.60;99.90;;;;;;5036587;28;20021;-69
2023/05/09 15:42:41;;;;;;;4.82;2.72;;;21.60;99.90;;;;;;5036670;28;20075;-69
2023/05/09 15:45:07;;;;;;;4.40;2.95;;;21.50;99.90;;;;;;5036387;28;20501;-70
2023/05/09 15:47:32;;;;;;;3.13;2.20;;;21.50;99.90;;;;;;5036221;28;20025;-70
2023/05/09 15:49:58;;;;;;;4.95;2.53;;;21.30;99.90;;;;;;5036270;28;20095;-69
2023/05/09 15:52:24;;;;;;;3.83;2.53;;;21.30;99.90;;;;;;5035065;28;20060;-72
2023/05/09 15:54:50;;;;;;;3.75;2.63;;;21.30;99.90;;;;;;5036459;28;20503;-72
2023/05/09 15:57:16;;;;;;;4.82;2.67;;;21.20;99.90;;;;;;5035249;28;20064;-73
2023/05/09 15:59:42;;;;;;;4.13;3.10;;;21.20;99.90;;;;;;5035203;28;20470;-73
2023/05/09 16:02:07;;;;;;;4.22;2.70;;;21.20;99.90;;;;;;5036458;28;20072;-74
2023/05/09 16:04:33;;;;;;;4.30;2.50;;;21.20;99.90;;;;;;5034823;28;20030;-69
2023/05/09 16:07:00;;;;;;;3.38;2.42;;;21.10;99.90;;;;;;5035678;28;20391;-69
2023/05/09 16:09:26;;;;;;;2.53;2.30;;;21.10;99.90;;;;;;5035653;28;20018;-70
2023/05/09 16:11:52;;;;;;;4.15;3.38;;;21.00;99.90;;;;;;5034037;28;20033;-72
2023/05/09 16:14:18;;;;;;;4.30;2.50;;;20.90;99.90;;;;;;5035144;28;20052;-71
2023/05/09 16:16:45;;;;;;;4.90;2.80;;;20.80;99.90;;;;;;5054921;28;20052;-72
2023/05/09 16:19:11;;;;;;;4.47;2.33;;;20.70;99.90;;;;;;5055787;28;20556;-73
2023/05/09 16:21:38;;;;;;;3.53;2.53;;;20.70;99.90;;;;;;5053184;28;20060;-72
2023/05/09 16:24:04;;;;;;;2.60;2.40;;;20.60;99.90;;;;;;5053768;28;20029;-71
2023/05/09 16:26:30;;;;;;;3.83;2.50;;;20.60;99.90;;;;;;5053780;28;20075;-70
2023/05/09 16:28:55;;;;;;;3.42;2.35;;;20.60;99.90;;;;;;5055331;28;20488;-70
2023/05/09 16:31:25;;;;;;;5.55;2.60;;;20.60;99.90;;;;;;5055514;28;20095;-70
2023/05/09 16:33:51;;;;;;;4.25;2.30;;;20.60;99.90;;;;;;5055512;28;20021;-72
2023/05/09 16:36:16;;;;;;;4.35;3.20;;;20.50;99.90;;;;;;5055958;28;20025;-72
2023/05/09 16:38:42;;;;;;;2.45;2.25;;;20.40;99.90;;;;;;5040162;28;20038;-72